Richmond, TX

7:16 AM CDT on August 30, 2015 (GMT -0500)
Sugar Land Municipal-Hull | | Change Station
CLOSE
Current Station
Airport
Location: Houston Hull,
Elevation: 82 ft
Nearby Weather Stations

Elev 82 ft 29.62 °N, 95.66 °W | Updated 23 minutes ago

Clear
Clear
69 °F
Feels Like 69 °F
N
0
Wind Variable Wind from North

Today
High -- | Low -- °F
--% Chance of Precip.
Yesterday
High -- | Low -- °F
Precip. -- in
6:58 AM 7:47 PM
Full, 99% visible
Pressure 30.01 in
Visibility 9.0 miles
Clouds Clear
Dew Point 68 °F
Humidity 96%
Rainfall 0.00 in
Snow Depth Not available.
UV 0 out of 12
Pollen 5.80 out of 12
Air Quality Not available.
Flu Activity Not available.
METAR KSGR 301153Z AUTO 00000KT 9SM CLR 21/20 A3000 RMK AO2 SLP161 T02060200 10239 20206 53006
Pressure 30.01 in
Visibility 9.0 miles
Clouds Clear
Dew Point 68 °F
Humidity 96%
Rainfall 0.00 in
Snow Depth Not available.
UV 0 out of 12
Pollen 5.80 out of 12
Air Quality Not available.
Flu Activity Not available.
METAR KSGR 301153Z AUTO 00000KT 9SM CLR 21/20 A3000 RMK AO2 SLP161 T02060200 10239 20206 53006

10-Day Weather Forecast

×

Almanac

Astronomy

Aug. 30, 2015 Rise Set
Actual Time
Civil Twilight
Nautical Twilight
Astronomical Twilight
Moon
Length of Visible Light
Length of Day
Tomorrow will be .
, % of the Moon is Illuminated

Today's Extremes

State Highs State Lows

Community

WunderPhotos

Upload Photos

1,850,936 photos uploaded!

WunderBlogs® & News

Nearby

Air Quality

  Air Quality AQ Index Pollutant
Not available.

Snow Depth

Station Depth Elevation

Earthquake Activity

City Distance Mag. Time & Date
Minimum magnitude displayed is 2.5.

Coastal Water Temperatures

Place Temperature

Stations

Nearby Weather Stations

Station Location Temp. Windchill Dew Point Humidity Wind Precip. Elev Updated Type